sensor_id;sensor_type;location;lat;lon;timestamp;P1;durP1;ratioP1;P2;durP2;ratioP2
27580;SDS011;15013;52.298;7.978;2022-07-22T00:04:30;12.83;;;8.20;;
27580;SDS011;15013;52.298;7.978;2022-07-22T00:09:31;8.80;;;7.97;;
27580;SDS011;15013;52.298;7.978;2022-07-22T00:14:32;10.85;;;8.68;;
27580;SDS011;15013;52.298;7.978;2022-07-22T00:19:32;10.97;;;8.97;;
27580;SDS011;15013;52.298;7.978;2022-07-22T00:24:33;10.43;;;7.90;;
27580;SDS011;15013;52.298;7.978;2022-07-22T00:29:33;12.48;;;8.35;;
27580;SDS011;15013;52.298;7.978;2022-07-22T00:34:34;13.30;;;8.50;;
27580;SDS011;15013;52.298;7.978;2022-07-22T00:39:34;9.82;;;8.43;;
27580;SDS011;15013;52.298;7.978;2022-07-22T00:44:35;10.77;;;8.35;;
27580;SDS011;15013;52.298;7.978;2022-07-22T00:49:35;11.13;;;8.60;;
27580;SDS011;15013;52.298;7.978;2022-07-22T00:54:36;11.23;;;6.33;;
27580;SDS011;15013;52.298;7.978;2022-07-22T00:59:36;17.30;;;5.75;;
27580;SDS011;15013;52.298;7.978;2022-07-22T01:04:37;13.30;;;5.80;;
27580;SDS011;15013;52.298;7.978;2022-07-22T01:09:37;8.27;;;4.20;;
27580;SDS011;15013;52.298;7.978;2022-07-22T01:14:44;6.95;;;3.75;;
27580;SDS011;15013;52.298;7.978;2022-07-22T01:19:45;10.25;;;3.90;;
27580;SDS011;15013;52.298;7.978;2022-07-22T01:24:46;5.05;;;3.78;;
27580;SDS011;15013;52.298;7.978;2022-07-22T01:29:46;9.48;;;4.25;;
27580;SDS011;15013;52.298;7.978;2022-07-22T01:34:47;5.07;;;3.55;;
27580;SDS011;15013;52.298;7.978;2022-07-22T01:39:48;8.23;;;4.35;;
27580;SDS011;15013;52.298;7.978;2022-07-22T01:44:48;6.28;;;4.47;;
27580;SDS011;15013;52.298;7.978;2022-07-22T01:49:49;11.52;;;5.13;;
27580;SDS011;15013;52.298;7.978;2022-07-22T01:54:49;9.75;;;4.82;;
27580;SDS011;15013;52.298;7.978;2022-07-22T01:59:50;9.50;;;5.20;;
27580;SDS011;15013;52.298;7.978;2022-07-22T02:04:50;9.13;;;4.25;;
27580;SDS011;15013;52.298;7.978;2022-07-22T02:09:51;8.53;;;4.60;;
27580;SDS011;15013;52.298;7.978;2022-07-22T02:14:52;8.95;;;4.20;;
27580;SDS011;15013;52.298;7.978;2022-07-22T02:19:53;9.43;;;4.28;;
27580;SDS011;15013;52.298;7.978;2022-07-22T02:24:53;10.30;;;3.97;;
27580;SDS011;15013;52.298;7.978;2022-07-22T02:29:53;10.67;;;4.07;;
27580;SDS011;15013;52.298;7.978;2022-07-22T02:34:54;6.23;;;3.30;;
27580;SDS011;15013;52.298;7.978;2022-07-22T02:39:55;6.43;;;3.80;;
27580;SDS011;15013;52.298;7.978;2022-07-22T02:44:56;8.38;;;3.45;;
27580;SDS011;15013;52.298;7.978;2022-07-22T02:49:58;9.15;;;3.67;;
27580;SDS011;15013;52.298;7.978;2022-07-22T02:54:58;7.20;;;3.80;;
27580;SDS011;15013;52.298;7.978;2022-07-22T02:59:59;7.18;;;3.67;;
27580;SDS011;15013;52.298;7.978;2022-07-22T03:04:59;8.13;;;4.10;;
27580;SDS011;15013;52.298;7.978;2022-07-22T03:10:00;8.65;;;4.47;;
27580;SDS011;15013;52.298;7.978;2022-07-22T03:15:00;6.63;;;4.00;;
27580;SDS011;15013;52.298;7.978;2022-07-22T03:20:03;8.70;;;4.28;;
27580;SDS011;15013;52.298;7.978;2022-07-22T03:25:04;8.90;;;4.03;;
27580;SDS011;15013;52.298;7.978;2022-07-22T03:30:04;8.98;;;4.45;;
27580;SDS011;15013;52.298;7.978;2022-07-22T03:35:10;9.05;;;4.20;;
27580;SDS011;15013;52.298;7.978;2022-07-22T03:40:15;9.97;;;5.00;;
27580;SDS011;15013;52.298;7.978;2022-07-22T03:45:17;10.35;;;4.00;;
27580;SDS011;15013;52.298;7.978;2022-07-22T03:50:17;8.02;;;4.10;;
27580;SDS011;15013;52.298;7.978;2022-07-22T03:55:19;12.20;;;4.60;;
27580;SDS011;15013;52.298;7.978;2022-07-22T04:00:23;9.52;;;4.70;;
27580;SDS011;15013;52.298;7.978;2022-07-22T04:05:24;12.90;;;5.20;;
27580;SDS011;15013;52.298;7.978;2022-07-22T04:10:24;10.00;;;4.77;;
27580;SDS011;15013;52.298;7.978;2022-07-22T04:15:25;7.90;;;5.03;;
27580;SDS011;15013;52.298;7.978;2022-07-22T04:20:26;12.77;;;6.07;;
27580;SDS011;15013;52.298;7.978;2022-07-22T04:25:45;15.27;;;6.75;;
27580;SDS011;15013;52.298;7.978;2022-07-22T04:30:46;12.75;;;7.13;;
27580;SDS011;15013;52.298;7.978;2022-07-22T04:35:47;20.42;;;6.53;;
27580;SDS011;15013;52.298;7.978;2022-07-22T04:40:51;19.40;;;8.40;;
27580;SDS011;15013;52.298;7.978;2022-07-22T04:45:51;11.88;;;7.00;;
27580;SDS011;15013;52.298;7.978;2022-07-22T04:50:52;21.00;;;7.15;;
27580;SDS011;15013;52.298;7.978;2022-07-22T04:55:53;19.67;;;7.43;;
27580;SDS011;15013;52.298;7.978;2022-07-22T05:00:53;16.17;;;7.20;;
27580;SDS011;15013;52.298;7.978;2022-07-22T05:05:54;13.65;;;7.90;;
27580;SDS011;15013;52.298;7.978;2022-07-22T05:11:02;20.80;;;7.35;;
27580;SDS011;15013;52.298;7.978;2022-07-22T05:16:03;16.67;;;7.50;;
27580;SDS011;15013;52.298;7.978;2022-07-22T05:21:06;14.85;;;7.40;;
27580;SDS011;15013;52.298;7.978;2022-07-22T05:26:08;16.92;;;7.22;;
27580;SDS011;15013;52.298;7.978;2022-07-22T05:31:10;16.30;;;7.85;;
27580;SDS011;15013;52.298;7.978;2022-07-22T05:36:13;16.65;;;8.00;;
27580;SDS011;15013;52.298;7.978;2022-07-22T05:41:20;19.25;;;9.57;;
27580;SDS011;15013;52.298;7.978;2022-07-22T05:46:20;15.93;;;8.73;;
27580;SDS011;15013;52.298;7.978;2022-07-22T05:51:21;20.60;;;9.55;;
27580;SDS011;15013;52.298;7.978;2022-07-22T05:56:22;21.80;;;9.45;;
27580;SDS011;15013;52.298;7.978;2022-07-22T06:01:23;22.77;;;9.52;;
27580;SDS011;15013;52.298;7.978;2022-07-22T06:06:25;21.95;;;9.18;;
27580;SDS011;15013;52.298;7.978;2022-07-22T06:11:25;19.17;;;8.15;;
27580;SDS011;15013;52.298;7.978;2022-07-22T06:16:26;19.48;;;7.30;;
27580;SDS011;15013;52.298;7.978;2022-07-22T06:21:30;21.23;;;7.95;;
27580;SDS011;15013;52.298;7.978;2022-07-22T06:26:32;20.75;;;7.68;;
27580;SDS011;15013;52.298;7.978;2022-07-22T06:31:33;15.27;;;7.03;;
27580;SDS011;15013;52.298;7.978;2022-07-22T06:36:34;18.25;;;6.25;;
27580;SDS011;15013;52.298;7.978;2022-07-22T06:41:34;18.87;;;6.60;;
27580;SDS011;15013;52.298;7.978;2022-07-22T06:46:53;14.75;;;5.85;;
27580;SDS011;15013;52.298;7.978;2022-07-22T06:51:55;12.38;;;6.20;;
27580;SDS011;15013;52.298;7.978;2022-07-22T06:56:56;17.17;;;6.15;;
27580;SDS011;15013;52.298;7.978;2022-07-22T07:02:02;12.48;;;5.70;;
27580;SDS011;15013;52.298;7.978;2022-07-22T07:07:03;14.65;;;5.80;;
27580;SDS011;15013;52.298;7.978;2022-07-22T07:12:07;11.95;;;6.05;;
27580;SDS011;15013;52.298;7.978;2022-07-22T07:17:39;15.35;;;5.72;;
27580;SDS011;15013;52.298;7.978;2022-07-22T07:22:43;20.02;;;6.28;;
27580;SDS011;15013;52.298;7.978;2022-07-22T07:27:46;13.35;;;5.93;;
27580;SDS011;15013;52.298;7.978;2022-07-22T07:32:49;21.40;;;5.20;;
27580;SDS011;15013;52.298;7.978;2022-07-22T07:37:49;13.73;;;4.80;;
27580;SDS011;15013;52.298;7.978;2022-07-22T07:42:50;11.02;;;5.22;;
27580;SDS011;15013;52.298;7.978;2022-07-22T07:47:52;14.90;;;5.15;;
27580;SDS011;15013;52.298;7.978;2022-07-22T07:52:54;18.58;;;5.20;;
27580;SDS011;15013;52.298;7.978;2022-07-22T07:57:57;10.98;;;4.90;;
27580;SDS011;15013;52.298;7.978;2022-07-22T08:02:58;13.05;;;4.45;;
27580;SDS011;15013;52.298;7.978;2022-07-22T08:08:00;12.88;;;4.10;;
27580;SDS011;15013;52.298;7.978;2022-07-22T08:13:01;10.23;;;3.95;;
27580;SDS011;15013;52.298;7.978;2022-07-22T08:18:35;10.05;;;4.05;;
27580;SDS011;15013;52.298;7.978;2022-07-22T08:23:35;9.57;;;4.35;;
27580;SDS011;15013;52.298;7.978;2022-07-22T08:28:36;9.70;;;3.95;;
27580;SDS011;15013;52.298;7.978;2022-07-22T08:33:37;9.00;;;3.38;;
27580;SDS011;15013;52.298;7.978;2022-07-22T08:38:37;6.63;;;3.08;;
27580;SDS011;15013;52.298;7.978;2022-07-22T08:43:39;13.35;;;3.67;;
27580;SDS011;15013;52.298;7.978;2022-07-22T08:48:42;9.02;;;3.22;;
27580;SDS011;15013;52.298;7.978;2022-07-22T08:53:57;14.65;;;3.85;;
27580;SDS011;15013;52.298;7.978;2022-07-22T08:58:57;7.27;;;3.50;;
27580;SDS011;15013;52.298;7.978;2022-07-22T09:03:58;9.53;;;3.37;;
27580;SDS011;15013;52.298;7.978;2022-07-22T09:09:04;7.23;;;3.60;;
27580;SDS011;15013;52.298;7.978;2022-07-22T09:20:18;6.80;;;3.40;;
27580;SDS011;15013;52.298;7.978;2022-07-22T09:25:40;5.05;;;3.85;;
27580;SDS011;15013;52.298;7.978;2022-07-22T09:31:03;13.90;;;4.50;;
27580;SDS011;15013;52.298;7.978;2022-07-22T09:36:08;10.83;;;3.90;;
27580;SDS011;15013;52.298;7.978;2022-07-22T09:41:10;10.60;;;4.72;;
27580;SDS011;15013;52.298;7.978;2022-07-22T09:46:11;9.73;;;4.28;;
27580;SDS011;15013;52.298;7.978;2022-07-22T09:51:30;6.95;;;3.58;;
27580;SDS011;15013;52.298;7.978;2022-07-22T09:56:50;5.93;;;3.20;;
27580;SDS011;15013;52.298;7.978;2022-07-22T10:01:54;11.25;;;4.07;;
27580;SDS011;15013;52.298;7.978;2022-07-22T10:06:54;10.75;;;3.80;;
27580;SDS011;15013;52.298;7.978;2022-07-22T10:11:59;10.40;;;3.50;;
27580;SDS011;15013;52.298;7.978;2022-07-22T10:16:59;10.13;;;3.75;;
27580;SDS011;15013;52.298;7.978;2022-07-22T10:22:01;12.85;;;4.22;;
27580;SDS011;15013;52.298;7.978;2022-07-22T10:27:02;10.88;;;4.32;;
27580;SDS011;15013;52.298;7.978;2022-07-22T10:37:51;6.93;;;3.10;;
27580;SDS011;15013;52.298;7.978;2022-07-22T10:47:58;11.80;;;3.03;;
27580;SDS011;15013;52.298;7.978;2022-07-22T10:52:59;7.68;;;3.55;;
27580;SDS011;15013;52.298;7.978;2022-07-22T10:58:00;10.68;;;3.53;;
27580;SDS011;15013;52.298;7.978;2022-07-22T11:03:01;6.88;;;3.75;;
27580;SDS011;15013;52.298;7.978;2022-07-22T11:08:01;8.15;;;3.40;;
27580;SDS011;15013;52.298;7.978;2022-07-22T11:13:08;7.45;;;3.50;;
27580;SDS011;15013;52.298;7.978;2022-07-22T11:18:09;4.90;;;3.00;;
27580;SDS011;15013;52.298;7.978;2022-07-22T11:23:09;8.13;;;3.77;;
27580;SDS011;15013;52.298;7.978;2022-07-22T11:28:10;10.20;;;3.88;;
27580;SDS011;15013;52.298;7.978;2022-07-22T11:33:11;11.95;;;4.25;;
27580;SDS011;15013;52.298;7.978;2022-07-22T11:38:12;9.25;;;3.30;;
27580;SDS011;15013;52.298;7.978;2022-07-22T11:43:12;9.57;;;3.20;;
27580;SDS011;15013;52.298;7.978;2022-07-22T11:48:13;7.37;;;4.13;;
27580;SDS011;15013;52.298;7.978;2022-07-22T11:53:13;7.47;;;3.47;;
27580;SDS011;15013;52.298;7.978;2022-07-22T11:58:13;9.63;;;3.60;;
27580;SDS011;15013;52.298;7.978;2022-07-22T12:03:15;7.50;;;3.60;;
27580;SDS011;15013;52.298;7.978;2022-07-22T12:08:16;11.13;;;3.67;;
27580;SDS011;15013;52.298;7.978;2022-07-22T12:13:16;8.23;;;3.60;;
27580;SDS011;15013;52.298;7.978;2022-07-22T12:18:20;9.27;;;4.27;;
27580;SDS011;15013;52.298;7.978;2022-07-22T12:23:22;11.17;;;4.20;;
27580;SDS011;15013;52.298;7.978;2022-07-22T12:28:23;11.65;;;3.47;;
27580;SDS011;15013;52.298;7.978;2022-07-22T12:33:24;11.30;;;3.70;;
27580;SDS011;15013;52.298;7.978;2022-07-22T12:38:24;8.10;;;4.47;;
27580;SDS011;15013;52.298;7.978;2022-07-22T12:43:25;6.80;;;4.13;;
27580;SDS011;15013;52.298;7.978;2022-07-22T12:48:29;6.90;;;3.90;;
27580;SDS011;15013;52.298;7.978;2022-07-22T12:53:29;4.78;;;3.25;;
27580;SDS011;15013;52.298;7.978;2022-07-22T12:58:32;6.18;;;3.80;;
27580;SDS011;15013;52.298;7.978;2022-07-22T13:03:33;6.63;;;3.83;;
27580;SDS011;15013;52.298;7.978;2022-07-22T13:08:33;7.25;;;3.88;;
27580;SDS011;15013;52.298;7.978;2022-07-22T13:13:34;8.68;;;3.88;;
27580;SDS011;15013;52.298;7.978;2022-07-22T13:18:34;9.60;;;4.40;;
27580;SDS011;15013;52.298;7.978;2022-07-22T13:23:34;7.20;;;3.83;;
27580;SDS011;15013;52.298;7.978;2022-07-22T13:28:35;5.53;;;4.27;;
27580;SDS011;15013;52.298;7.978;2022-07-22T13:33:35;6.05;;;3.70;;
27580;SDS011;15013;52.298;7.978;2022-07-22T13:38:36;5.20;;;3.80;;
27580;SDS011;15013;52.298;7.978;2022-07-22T13:43:36;5.28;;;3.75;;
27580;SDS011;15013;52.298;7.978;2022-07-22T13:48:37;6.23;;;4.47;;
27580;SDS011;15013;52.298;7.978;2022-07-22T13:53:37;4.90;;;3.53;;
27580;SDS011;15013;52.298;7.978;2022-07-22T13:58:38;10.95;;;4.57;;
27580;SDS011;15013;52.298;7.978;2022-07-22T14:03:39;8.10;;;3.63;;
27580;SDS011;15013;52.298;7.978;2022-07-22T14:08:40;5.07;;;3.10;;
27580;SDS011;15013;52.298;7.978;2022-07-22T14:13:40;6.70;;;3.60;;
27580;SDS011;15013;52.298;7.978;2022-07-22T14:18:41;5.53;;;3.95;;
27580;SDS011;15013;52.298;7.978;2022-07-22T14:23:44;10.07;;;3.93;;
27580;SDS011;15013;52.298;7.978;2022-07-22T14:28:44;9.27;;;4.63;;
27580;SDS011;15013;52.298;7.978;2022-07-22T14:33:45;7.93;;;4.55;;
27580;SDS011;15013;52.298;7.978;2022-07-22T14:38:46;7.43;;;4.43;;
27580;SDS011;15013;52.298;7.978;2022-07-22T14:43:46;7.05;;;4.43;;
27580;SDS011;15013;52.298;7.978;2022-07-22T14:48:47;8.63;;;4.40;;
27580;SDS011;15013;52.298;7.978;2022-07-22T14:53:52;10.70;;;4.53;;
27580;SDS011;15013;52.298;7.978;2022-07-22T14:58:53;8.70;;;4.77;;
27580;SDS011;15013;52.298;7.978;2022-07-22T15:03:53;5.60;;;4.43;;
27580;SDS011;15013;52.298;7.978;2022-07-22T15:08:53;5.40;;;4.03;;
27580;SDS011;15013;52.298;7.978;2022-07-22T15:13:54;13.20;;;5.03;;
27580;SDS011;15013;52.298;7.978;2022-07-22T15:18:54;9.90;;;5.37;;
27580;SDS011;15013;52.298;7.978;2022-07-22T15:23:54;8.40;;;5.20;;
27580;SDS011;15013;52.298;7.978;2022-07-22T15:28:55;5.73;;;4.33;;
27580;SDS011;15013;52.298;7.978;2022-07-22T15:33:55;8.77;;;5.07;;
27580;SDS011;15013;52.298;7.978;2022-07-22T15:38:56;7.10;;;3.97;;
27580;SDS011;15013;52.298;7.978;2022-07-22T15:43:56;5.13;;;4.32;;
27580;SDS011;15013;52.298;7.978;2022-07-22T15:48:57;7.18;;;4.25;;
27580;SDS011;15013;52.298;7.978;2022-07-22T15:53:57;10.63;;;4.13;;
27580;SDS011;15013;52.298;7.978;2022-07-22T15:58:57;6.37;;;3.90;;
27580;SDS011;15013;52.298;7.978;2022-07-22T16:04:16;4.80;;;3.55;;
27580;SDS011;15013;52.298;7.978;2022-07-22T16:09:17;5.20;;;3.73;;
27580;SDS011;15013;52.298;7.978;2022-07-22T16:14:17;7.27;;;3.20;;
27580;SDS011;15013;52.298;7.978;2022-07-22T16:19:18;4.40;;;3.03;;
27580;SDS011;15013;52.298;7.978;2022-07-22T16:24:18;6.30;;;3.67;;
27580;SDS011;15013;52.298;7.978;2022-07-22T16:29:19;9.63;;;3.63;;
27580;SDS011;15013;52.298;7.978;2022-07-22T16:34:19;7.33;;;3.83;;
27580;SDS011;15013;52.298;7.978;2022-07-22T16:39:20;6.68;;;4.13;;
27580;SDS011;15013;52.298;7.978;2022-07-22T16:44:20;6.83;;;4.37;;
27580;SDS011;15013;52.298;7.978;2022-07-22T16:49:20;8.57;;;3.70;;
27580;SDS011;15013;52.298;7.978;2022-07-22T16:54:21;6.70;;;4.80;;
27580;SDS011;15013;52.298;7.978;2022-07-22T16:59:21;7.90;;;4.60;;
27580;SDS011;15013;52.298;7.978;2022-07-22T17:04:22;4.43;;;3.50;;
27580;SDS011;15013;52.298;7.978;2022-07-22T17:09:22;7.70;;;4.40;;
27580;SDS011;15013;52.298;7.978;2022-07-22T17:14:22;7.90;;;3.90;;
27580;SDS011;15013;52.298;7.978;2022-07-22T17:19:23;7.27;;;4.43;;
27580;SDS011;15013;52.298;7.978;2022-07-22T17:24:23;6.63;;;4.00;;
27580;SDS011;15013;52.298;7.978;2022-07-22T17:29:23;7.63;;;3.60;;
27580;SDS011;15013;52.298;7.978;2022-07-22T17:34:24;8.70;;;3.90;;
27580;SDS011;15013;52.298;7.978;2022-07-22T17:39:25;7.10;;;3.80;;
27580;SDS011;15013;52.298;7.978;2022-07-22T17:44:25;6.35;;;3.63;;
27580;SDS011;15013;52.298;7.978;2022-07-22T17:49:25;10.60;;;4.30;;
27580;SDS011;15013;52.298;7.978;2022-07-22T17:54:26;7.93;;;4.53;;
27580;SDS011;15013;52.298;7.978;2022-07-22T17:59:26;8.53;;;3.93;;
27580;SDS011;15013;52.298;7.978;2022-07-22T18:04:27;6.73;;;4.90;;
27580;SDS011;15013;52.298;7.978;2022-07-22T18:09:27;7.93;;;4.90;;
27580;SDS011;15013;52.298;7.978;2022-07-22T18:14:27;10.57;;;4.67;;
27580;SDS011;15013;52.298;7.978;2022-07-22T18:19:28;6.97;;;4.90;;
27580;SDS011;15013;52.298;7.978;2022-07-22T18:24:28;5.53;;;4.57;;
27580;SDS011;15013;52.298;7.978;2022-07-22T18:29:28;8.40;;;4.20;;
27580;SDS011;15013;52.298;7.978;2022-07-22T18:34:29;10.48;;;4.85;;
27580;SDS011;15013;52.298;7.978;2022-07-22T18:39:29;9.10;;;4.97;;
27580;SDS011;15013;52.298;7.978;2022-07-22T18:44:30;5.20;;;4.47;;
27580;SDS011;15013;52.298;7.978;2022-07-22T18:49:30;12.73;;;5.60;;
27580;SDS011;15013;52.298;7.978;2022-07-22T18:54:30;9.63;;;5.37;;
27580;SDS011;15013;52.298;7.978;2022-07-22T18:59:31;9.20;;;6.27;;
27580;SDS011;15013;52.298;7.978;2022-07-22T19:04:31;8.15;;;5.97;;
27580;SDS011;15013;52.298;7.978;2022-07-22T19:09:32;6.20;;;5.60;;
27580;SDS011;15013;52.298;7.978;2022-07-22T19:14:32;8.03;;;6.10;;
27580;SDS011;15013;52.298;7.978;2022-07-22T19:19:33;11.82;;;6.47;;
27580;SDS011;15013;52.298;7.978;2022-07-22T19:24:33;9.40;;;6.90;;
27580;SDS011;15013;52.298;7.978;2022-07-22T19:29:34;7.50;;;5.53;;
27580;SDS011;15013;52.298;7.978;2022-07-22T19:34:34;9.50;;;6.78;;
27580;SDS011;15013;52.298;7.978;2022-07-22T19:39:35;9.83;;;6.63;;
27580;SDS011;15013;52.298;7.978;2022-07-22T19:44:35;9.27;;;6.60;;
27580;SDS011;15013;52.298;7.978;2022-07-22T19:49:35;10.40;;;6.10;;
27580;SDS011;15013;52.298;7.978;2022-07-22T19:54:36;9.90;;;6.43;;
27580;SDS011;15013;52.298;7.978;2022-07-22T19:59:36;11.63;;;6.83;;
27580;SDS011;15013;52.298;7.978;2022-07-22T20:04:37;9.97;;;7.20;;
27580;SDS011;15013;52.298;7.978;2022-07-22T20:09:37;11.40;;;8.27;;
27580;SDS011;15013;52.298;7.978;2022-07-22T20:14:38;11.53;;;9.23;;
27580;SDS011;15013;52.298;7.978;2022-07-22T20:19:39;17.23;;;9.10;;
27580;SDS011;15013;52.298;7.978;2022-07-22T20:24:39;15.10;;;7.93;;
27580;SDS011;15013;52.298;7.978;2022-07-22T20:29:39;13.73;;;7.95;;
27580;SDS011;15013;52.298;7.978;2022-07-22T20:34:40;13.20;;;8.70;;
27580;SDS011;15013;52.298;7.978;2022-07-22T20:39:41;11.35;;;8.73;;
27580;SDS011;15013;52.298;7.978;2022-07-22T20:44:41;13.50;;;8.03;;
27580;SDS011;15013;52.298;7.978;2022-07-22T20:49:42;12.13;;;8.43;;
27580;SDS011;15013;52.298;7.978;2022-07-22T20:54:43;15.60;;;8.50;;
27580;SDS011;15013;52.298;7.978;2022-07-22T20:59:43;11.27;;;8.23;;
27580;SDS011;15013;52.298;7.978;2022-07-22T21:04:43;13.27;;;8.07;;
27580;SDS011;15013;52.298;7.978;2022-07-22T21:09:44;11.10;;;8.30;;
27580;SDS011;15013;52.298;7.978;2022-07-22T21:14:44;10.37;;;7.73;;
27580;SDS011;15013;52.298;7.978;2022-07-22T21:19:44;13.80;;;7.97;;
27580;SDS011;15013;52.298;7.978;2022-07-22T21:24:45;14.37;;;7.77;;
27580;SDS011;15013;52.298;7.978;2022-07-22T21:29:45;11.90;;;7.67;;
27580;SDS011;15013;52.298;7.978;2022-07-22T21:34:45;11.40;;;8.30;;
27580;SDS011;15013;52.298;7.978;2022-07-22T21:39:46;9.07;;;7.63;;
27580;SDS011;15013;52.298;7.978;2022-07-22T21:44:46;8.87;;;7.30;;
27580;SDS011;15013;52.298;7.978;2022-07-22T21:49:46;11.13;;;7.17;;
27580;SDS011;15013;52.298;7.978;2022-07-22T21:54:47;13.43;;;7.75;;
27580;SDS011;15013;52.298;7.978;2022-07-22T21:59:47;11.07;;;7.73;;
27580;SDS011;15013;52.298;7.978;2022-07-22T22:04:48;10.77;;;7.77;;
27580;SDS011;15013;52.298;7.978;2022-07-22T22:09:48;14.05;;;7.82;;
27580;SDS011;15013;52.298;7.978;2022-07-22T22:14:48;11.13;;;7.90;;
27580;SDS011;15013;52.298;7.978;2022-07-22T22:19:49;12.47;;;8.17;;
27580;SDS011;15013;52.298;7.978;2022-07-22T22:25:00;11.98;;;7.75;;
27580;SDS011;15013;52.298;7.978;2022-07-22T22:30:03;11.65;;;7.68;;
27580;SDS011;15013;52.298;7.978;2022-07-22T22:35:03;11.98;;;7.80;;
27580;SDS011;15013;52.298;7.978;2022-07-22T22:40:04;12.93;;;8.05;;
27580;SDS011;15013;52.298;7.978;2022-07-22T22:45:13;9.38;;;8.25;;
27580;SDS011;15013;52.298;7.978;2022-07-22T22:50:33;13.38;;;8.30;;
27580;SDS011;15013;52.298;7.978;2022-07-22T22:55:34;11.83;;;8.87;;
27580;SDS011;15013;52.298;7.978;2022-07-22T23:00:34;16.67;;;8.57;;
27580;SDS011;15013;52.298;7.978;2022-07-22T23:05:35;11.60;;;8.82;;
27580;SDS011;15013;52.298;7.978;2022-07-22T23:10:36;10.65;;;8.75;;
27580;SDS011;15013;52.298;7.978;2022-07-22T23:15:36;12.03;;;9.23;;
27580;SDS011;15013;52.298;7.978;2022-07-22T23:20:36;14.80;;;9.27;;
27580;SDS011;15013;52.298;7.978;2022-07-22T23:25:49;11.55;;;8.65;;
27580;SDS011;15013;52.298;7.978;2022-07-22T23:30:50;12.15;;;9.18;;
27580;SDS011;15013;52.298;7.978;2022-07-22T23:35:50;13.07;;;9.70;;
27580;SDS011;15013;52.298;7.978;2022-07-22T23:40:51;12.03;;;9.53;;
27580;SDS011;15013;52.298;7.978;2022-07-22T23:45:51;13.23;;;10.53;;
27580;SDS011;15013;52.298;7.978;2022-07-22T23:50:51;18.15;;;10.32;;
27580;SDS011;15013;52.298;7.978;2022-07-22T23:55:52;16.10;;;10.20;;
